sensor_id;sensor_type;location;lat;lon;timestamp;pressure;altitude;pressure_sealevel;temperature;humidity
75455;BME280;64035;48.358;2.122;2023-03-23T00:00:51;99989.53;;;12.15;80.12
75455;BME280;64035;48.358;2.122;2023-03-23T00:01:56;99989.53;;;12.15;80.12
75455;BME280;64035;48.358;2.122;2023-03-23T00:03:00;99984.41;;;12.15;80.00
75455;BME280;64035;48.358;2.122;2023-03-23T00:04:04;99984.34;;;12.13;80.15
75455;BME280;64035;48.358;2.122;2023-03-23T00:05:08;99985.97;;;12.09;80.05
75455;BME280;64035;48.358;2.122;2023-03-23T00:06:12;99976.50;;;12.08;80.19
75455;BME280;64035;48.358;2.122;2023-03-23T00:07:21;99972.13;;;12.06;80.19
75455;BME280;64035;48.358;2.122;2023-03-23T00:08:25;99982.50;;;12.09;80.66
75455;BME280;64035;48.358;2.122;2023-03-23T00:09:29;99979.00;;;12.07;80.28
75455;BME280;64035;48.358;2.122;2023-03-23T00:10:34;99974.69;;;12.06;80.37
75455;BME280;64035;48.358;2.122;2023-03-23T00:11:38;99972.13;;;12.06;80.15
75455;BME280;64035;48.358;2.122;2023-03-23T00:12:41;99965.25;;;12.05;80.13
75455;BME280;64035;48.358;2.122;2023-03-23T00:13:46;99972.13;;;12.06;80.04
75455;BME280;64035;48.358;2.122;2023-03-23T00:14:50;99968.63;;;12.04;80.11
75455;BME280;64035;48.358;2.122;2023-03-23T00:15:56;99966.06;;;12.04;79.97
75455;BME280;64035;48.358;2.122;2023-03-23T00:17:00;99965.16;;;12.02;80.19
75455;BME280;64035;48.358;2.122;2023-03-23T00:18:03;99965.09;;;12.00;80.59
75455;BME280;64035;48.358;2.122;2023-03-23T00:19:10;99966.72;;;11.98;80.43
75455;BME280;64035;48.358;2.122;2023-03-23T00:20:16;99964.16;;;11.98;80.33
75455;BME280;64035;48.358;2.122;2023-03-23T00:21:20;99964.09;;;11.97;80.52
75455;BME280;64035;48.358;2.122;2023-03-23T00:22:28;99962.34;;;11.96;80.53
75455;BME280;64035;48.358;2.122;2023-03-23T00:23:31;99952.16;;;11.97;80.22
75455;BME280;64035;48.358;2.122;2023-03-23T00:24:34;99946.94;;;11.94;80.53
75455;BME280;64035;48.358;2.122;2023-03-23T00:25:37;99952.84;;;11.92;80.53
75455;BME280;64035;48.358;2.122;2023-03-23T00:26:40;99963.97;;;11.92;80.67
75455;BME280;64035;48.358;2.122;2023-03-23T00:27:43;99958.84;;;11.92;80.54
75455;BME280;64035;48.358;2.122;2023-03-23T00:28:47;99963.16;;;11.93;80.24
75455;BME280;64035;48.358;2.122;2023-03-23T00:29:51;99964.91;;;11.94;80.30
75455;BME280;64035;48.358;2.122;2023-03-23T00:31:03;99960.59;;;11.93;80.55
75455;BME280;64035;48.358;2.122;2023-03-23T00:32:07;99963.16;;;11.93;80.62
75455;BME280;64035;48.358;2.122;2023-03-23T00:33:16;99971.72;;;11.94;80.32
75455;BME280;64035;48.358;2.122;2023-03-23T00:34:21;99964.03;;;11.94;80.59
75455;BME280;64035;48.358;2.122;2023-03-23T00:35:24;99967.47;;;11.94;80.10
75455;BME280;64035;48.358;2.122;2023-03-23T00:36:28;99965.72;;;11.93;80.14
75455;BME280;64035;48.358;2.122;2023-03-23T00:37:31;99958.03;;;11.93;80.44
75455;BME280;64035;48.358;2.122;2023-03-23T00:38:37;99959.72;;;11.93;80.28
75455;BME280;64035;48.358;2.122;2023-03-23T00:39:40;99955.44;;;11.93;80.27
75455;BME280;64035;48.358;2.122;2023-03-23T00:40:48;99965.66;;;11.92;80.40
75455;BME280;64035;48.358;2.122;2023-03-23T00:41:53;99959.72;;;11.93;80.39
75455;BME280;64035;48.358;2.122;2023-03-23T00:43:03;99954.53;;;11.91;80.27
75455;BME280;64035;48.358;2.122;2023-03-23T00:44:06;99956.28;;;11.92;80.44
75455;BME280;64035;48.358;2.122;2023-03-23T00:45:11;99948.56;;;11.92;80.36
75455;BME280;64035;48.358;2.122;2023-03-23T00:46:14;99942.50;;;11.90;80.18
75455;BME280;64035;48.358;2.122;2023-03-23T00:47:18;99946.75;;;11.90;80.26
75455;BME280;64035;48.358;2.122;2023-03-23T00:48:24;99939.94;;;11.90;80.40
75455;BME280;64035;48.358;2.122;2023-03-23T00:49:28;99937.38;;;11.90;80.65
75455;BME280;64035;48.358;2.122;2023-03-23T00:50:31;99934.75;;;11.89;80.51
75455;BME280;64035;48.358;2.122;2023-03-23T00:51:34;99935.63;;;11.89;80.60
75455;BME280;64035;48.358;2.122;2023-03-23T00:52:38;99927.94;;;11.89;80.25
75455;BME280;64035;48.358;2.122;2023-03-23T00:53:41;99935.59;;;11.88;80.46
75455;BME280;64035;48.358;2.122;2023-03-23T00:54:44;99949.31;;;11.88;80.57
75455;BME280;64035;48.358;2.122;2023-03-23T00:55:48;99941.63;;;11.90;80.30
75455;BME280;64035;48.358;2.122;2023-03-23T00:56:53;99947.59;;;11.89;80.33
75455;BME280;64035;48.358;2.122;2023-03-23T00:57:56;99944.19;;;11.90;80.42
75455;BME280;64035;48.358;2.122;2023-03-23T00:59:00;99939.06;;;11.90;80.18
75455;BME280;64035;48.358;2.122;2023-03-23T01:00:03;99943.38;;;11.91;80.16
75455;BME280;64035;48.358;2.122;2023-03-23T01:01:12;99938.31;;;11.92;80.33
75455;BME280;64035;48.358;2.122;2023-03-23T01:02:17;99943.50;;;11.94;80.33
75455;BME280;64035;48.358;2.122;2023-03-23T01:03:20;99949.38;;;11.91;80.33
75455;BME280;64035;48.358;2.122;2023-03-23T01:04:23;99951.13;;;11.92;80.46
75455;BME280;64035;48.358;2.122;2023-03-23T01:05:26;99953.66;;;11.91;80.59
75455;BME280;64035;48.358;2.122;2023-03-23T01:06:36;99954.53;;;11.91;80.17
75455;BME280;64035;48.358;2.122;2023-03-23T01:07:42;99935.59;;;11.88;80.33
75455;BME280;64035;48.358;2.122;2023-03-23T01:08:46;99943.31;;;11.89;80.29
75455;BME280;64035;48.358;2.122;2023-03-23T01:09:49;99939.88;;;11.89;80.71
75455;BME280;64035;48.358;2.122;2023-03-23T01:11:03;99946.75;;;11.90;80.73
75455;BME280;64035;48.358;2.122;2023-03-23T01:12:06;99937.31;;;11.89;80.32
75455;BME280;64035;48.358;2.122;2023-03-23T01:13:10;99939.03;;;11.88;80.52
75455;BME280;64035;48.358;2.122;2023-03-23T01:14:16;99951.88;;;11.88;80.60
75455;BME280;64035;48.358;2.122;2023-03-23T01:15:20;99939.88;;;11.89;80.72
75455;BME280;64035;48.358;2.122;2023-03-23T01:16:24;99944.19;;;11.88;80.59
75455;BME280;64035;48.358;2.122;2023-03-23T01:17:27;99946.75;;;11.88;80.61
75455;BME280;64035;48.358;2.122;2023-03-23T01:18:30;99939.84;;;11.87;80.71
75455;BME280;64035;48.358;2.122;2023-03-23T01:19:33;99946.69;;;11.87;80.63
75455;BME280;64035;48.358;2.122;2023-03-23T01:20:36;99951.81;;;11.87;80.84
75455;BME280;64035;48.358;2.122;2023-03-23T01:21:40;99954.44;;;11.88;80.95
75455;BME280;64035;48.358;2.122;2023-03-23T01:22:43;99951.88;;;11.88;80.64
75455;BME280;64035;48.358;2.122;2023-03-23T01:23:48;99954.44;;;11.88;80.72
75455;BME280;64035;48.358;2.122;2023-03-23T01:24:51;99950.13;;;11.87;80.62
75455;BME280;64035;48.358;2.122;2023-03-23T01:25:54;99947.59;;;11.89;80.58
75455;BME280;64035;48.358;2.122;2023-03-23T01:27:00;99949.25;;;11.87;80.67
75455;BME280;64035;48.358;2.122;2023-03-23T01:28:09;99946.63;;;11.85;80.90
75455;BME280;64035;48.358;2.122;2023-03-23T01:29:13;99947.56;;;11.87;80.83
75455;BME280;64035;48.358;2.122;2023-03-23T01:30:16;99943.25;;;11.86;80.87
75455;BME280;64035;48.358;2.122;2023-03-23T01:31:22;99932.16;;;11.87;80.89
75455;BME280;64035;48.358;2.122;2023-03-23T01:32:25;99942.50;;;11.90;80.71
75455;BME280;64035;48.358;2.122;2023-03-23T01:33:29;99932.09;;;11.86;80.87
75455;BME280;64035;48.358;2.122;2023-03-23T01:34:33;99935.59;;;11.88;80.96
75455;BME280;64035;48.358;2.122;2023-03-23T01:35:37;99936.47;;;11.88;80.74
75455;BME280;64035;48.358;2.122;2023-03-23T01:36:40;99939.03;;;11.88;80.97
75455;BME280;64035;48.358;2.122;2023-03-23T01:37:43;99921.03;;;11.87;80.88
75455;BME280;64035;48.358;2.122;2023-03-23T01:38:48;99939.88;;;11.89;81.11
75455;BME280;64035;48.358;2.122;2023-03-23T01:39:53;99936.50;;;11.90;80.63
75455;BME280;64035;48.358;2.122;2023-03-23T01:40:57;99927.94;;;11.89;80.71
75455;BME280;64035;48.358;2.122;2023-03-23T01:42:00;99924.50;;;11.89;80.70
75455;BME280;64035;48.358;2.122;2023-03-23T01:43:10;99942.38;;;11.86;81.02
75455;BME280;64035;48.358;2.122;2023-03-23T01:45:52;99936.38;;;11.85;80.82
75455;BME280;64035;48.358;2.122;2023-03-23T01:46:56;99940.63;;;11.85;81.15
75455;BME280;64035;48.358;2.122;2023-03-23T01:48:42;99945.75;;;11.85;81.26
75455;BME280;64035;48.358;2.122;2023-03-23T01:49:33;99930.34;;;11.85;81.13
75455;BME280;64035;48.358;2.122;2023-03-23T01:52:03;99938.06;;;11.85;81.29
75455;BME280;64035;48.358;2.122;2023-03-23T01:53:10;99924.34;;;11.84;80.97
75455;BME280;64035;48.358;2.122;2023-03-23T01:54:17;99908.09;;;11.84;81.19
75455;BME280;64035;48.358;2.122;2023-03-23T01:55:24;99912.47;;;11.86;81.11
75455;BME280;64035;48.358;2.122;2023-03-23T01:56:35;99908.09;;;11.84;80.86
75455;BME280;64035;48.358;2.122;2023-03-23T01:57:41;99911.59;;;11.86;80.83
75455;BME280;64035;48.358;2.122;2023-03-23T01:58:44;99923.53;;;11.85;80.92
75455;BME280;64035;48.358;2.122;2023-03-23T01:59:51;99908.16;;;11.85;81.10
75455;BME280;64035;48.358;2.122;2023-03-23T02:01:04;99912.53;;;11.88;80.89
75455;BME280;64035;48.358;2.122;2023-03-23T02:02:09;99904.78;;;11.86;80.83
75455;BME280;64035;48.358;2.122;2023-03-23T02:03:14;99902.16;;;11.85;81.02
75455;BME280;64035;48.358;2.122;2023-03-23T02:04:23;99893.50;;;11.81;81.07
75455;BME280;64035;48.358;2.122;2023-03-23T02:05:30;99889.22;;;11.82;81.13
75455;BME280;64035;48.358;2.122;2023-03-23T02:06:41;99898.66;;;11.83;81.19
75455;BME280;64035;48.358;2.122;2023-03-23T02:07:53;99893.50;;;11.81;81.13
75455;BME280;64035;48.358;2.122;2023-03-23T02:08:57;99901.19;;;11.81;81.19
75455;BME280;64035;48.358;2.122;2023-03-23T02:10:01;99901.13;;;11.80;81.30
75455;BME280;64035;48.358;2.122;2023-03-23T02:11:15;99913.81;;;11.77;81.28
75455;BME280;64035;48.358;2.122;2023-03-23T02:12:19;99917.28;;;11.77;81.31
75455;BME280;64035;48.358;2.122;2023-03-23T02:13:24;99907.00;;;11.77;81.43
75455;BME280;64035;48.358;2.122;2023-03-23T02:14:28;99921.59;;;11.78;81.43
75455;BME280;64035;48.358;2.122;2023-03-23T02:17:28;99898.44;;;11.77;81.30
75455;BME280;64035;48.358;2.122;2023-03-23T02:18:43;99897.63;;;11.78;81.47
75455;BME280;64035;48.358;2.122;2023-03-23T02:23:29;99905.31;;;11.78;81.42
75455;BME280;64035;48.358;2.122;2023-03-23T02:24:57;99907.00;;;11.77;81.37
75455;BME280;64035;48.358;2.122;2023-03-23T02:33:58;99930.09;;;11.77;81.29
75455;BME280;64035;48.358;2.122;2023-03-23T02:35:12;99923.22;;;11.76;81.42
75455;BME280;64035;48.358;2.122;2023-03-23T02:37:38;99925.78;;;11.76;81.28
75455;BME280;64035;48.358;2.122;2023-03-23T02:40:02;99923.16;;;11.74;81.68
75455;BME280;64035;48.358;2.122;2023-03-23T02:41:14;99931.84;;;11.78;81.23
75455;BME280;64035;48.358;2.122;2023-03-23T02:42:28;99930.16;;;11.79;81.16
75455;BME280;64035;48.358;2.122;2023-03-23T02:43:40;99919.03;;;11.78;81.30
75455;BME280;64035;48.358;2.122;2023-03-23T02:44:47;99918.09;;;11.76;81.47
75455;BME280;64035;48.358;2.122;2023-03-23T02:45:54;99924.97;;;11.77;81.41
75455;BME280;64035;48.358;2.122;2023-03-23T02:47:00;99922.31;;;11.74;81.48
75455;BME280;64035;48.358;2.122;2023-03-23T02:48:07;99914.69;;;11.77;81.37
75455;BME280;64035;48.358;2.122;2023-03-23T02:49:14;99920.72;;;11.78;81.47
75455;BME280;64035;48.358;2.122;2023-03-23T02:50:20;99912.13;;;11.77;81.19
75455;BME280;64035;48.358;2.122;2023-03-23T02:51:25;99901.00;;;11.77;81.25
75455;BME280;64035;48.358;2.122;2023-03-23T02:52:31;99900.94;;;11.75;81.49
75455;BME280;64035;48.358;2.122;2023-03-23T02:53:37;99909.50;;;11.74;81.56
75455;BME280;64035;48.358;2.122;2023-03-23T02:54:44;99908.56;;;11.73;81.57
75455;BME280;64035;48.358;2.122;2023-03-23T02:55:50;99908.56;;;11.73;81.54
75455;BME280;64035;48.358;2.122;2023-03-23T02:56:57;99900.81;;;11.72;81.67
75455;BME280;64035;48.358;2.122;2023-03-23T02:58:04;99905.13;;;11.73;81.77
75455;BME280;64035;48.358;2.122;2023-03-23T02:59:07;99901.78;;;11.74;81.40
75455;BME280;64035;48.358;2.122;2023-03-23T03:00:13;99888.13;;;11.75;81.56
75455;BME280;64035;48.358;2.122;2023-03-23T03:02:32;99902.69;;;11.76;81.34
75455;BME280;64035;48.358;2.122;2023-03-23T03:03:38;99894.94;;;11.74;81.68
75455;BME280;64035;48.358;2.122;2023-03-23T03:04:46;99898.44;;;11.77;81.50
75455;BME280;64035;48.358;2.122;2023-03-23T03:08:37;99887.19;;;11.73;81.96
75455;BME280;64035;48.358;2.122;2023-03-23T03:09:51;99884.56;;;11.71;81.45
75455;BME280;64035;48.358;2.122;2023-03-23T03:11:08;99887.19;;;11.73;81.61
75455;BME280;64035;48.358;2.122;2023-03-23T03:18:03;99882.81;;;11.70;81.96
75455;BME280;64035;48.358;2.122;2023-03-23T03:19:25;99888.97;;;11.74;81.70
75455;BME280;64035;48.358;2.122;2023-03-23T03:20:30;99879.50;;;11.73;81.70
75455;BME280;64035;48.358;2.122;2023-03-23T03:21:37;99889.69;;;11.71;81.99
75455;BME280;64035;48.358;2.122;2023-03-23T03:22:43;99883.75;;;11.72;81.75
75455;BME280;64035;48.358;2.122;2023-03-23T03:23:48;99880.31;;;11.72;81.73
75455;BME280;64035;48.358;2.122;2023-03-23T03:24:52;99877.81;;;11.73;81.69
75455;BME280;64035;48.358;2.122;2023-03-23T03:25:56;99878.56;;;11.71;82.01
75455;BME280;64035;48.358;2.122;2023-03-23T03:27:13;99879.44;;;11.71;81.81
75455;BME280;64035;48.358;2.122;2023-03-23T03:28:22;99884.63;;;11.73;81.74
75455;BME280;64035;48.358;2.122;2023-03-23T03:29:30;99880.31;;;11.72;81.81
75455;BME280;64035;48.358;2.122;2023-03-23T03:30:36;99881.13;;;11.71;81.90
75455;BME280;64035;48.358;2.122;2023-03-23T03:31:41;99878.56;;;11.71;81.81
75455;BME280;64035;48.358;2.122;2023-03-23T03:32:49;99875.25;;;11.73;81.52
75455;BME280;64035;48.358;2.122;2023-03-23T03:33:56;99864.06;;;11.71;81.75
75455;BME280;64035;48.358;2.122;2023-03-23T03:35:01;99869.19;;;11.71;81.80
75455;BME280;64035;48.358;2.122;2023-03-23T03:36:07;99872.56;;;11.70;82.04
75455;BME280;64035;48.358;2.122;2023-03-23T03:37:18;99863.19;;;11.71;81.75
75455;BME280;64035;48.358;2.122;2023-03-23T03:38:23;99883.69;;;11.71;82.06
75455;BME280;64035;48.358;2.122;2023-03-23T03:39:28;99870.88;;;11.71;81.84
75455;BME280;64035;48.358;2.122;2023-03-23T03:40:31;99876.06;;;11.72;82.04
75455;BME280;64035;48.358;2.122;2023-03-23T03:41:37;99882.94;;;11.73;81.84
75455;BME280;64035;48.358;2.122;2023-03-23T03:42:41;99881.19;;;11.72;81.67
75455;BME280;64035;48.358;2.122;2023-03-23T03:43:46;99882.06;;;11.73;82.02
75455;BME280;64035;48.358;2.122;2023-03-23T03:44:49;99881.13;;;11.71;81.72
75455;BME280;64035;48.358;2.122;2023-03-23T03:45:53;99887.19;;;11.73;81.85
75455;BME280;64035;48.358;2.122;2023-03-23T03:46:57;99880.31;;;11.72;81.65
75455;BME280;64035;48.358;2.122;2023-03-23T03:48:00;99877.81;;;11.73;81.75
75455;BME280;64035;48.358;2.122;2023-03-23T03:49:07;99872.69;;;11.73;81.54
75455;BME280;64035;48.358;2.122;2023-03-23T03:50:13;99880.44;;;11.75;81.63
75455;BME280;64035;48.358;2.122;2023-03-23T03:51:16;99879.56;;;11.74;81.67
75455;BME280;64035;48.358;2.122;2023-03-23T03:52:23;99869.25;;;11.73;81.83
75455;BME280;64035;48.358;2.122;2023-03-23T03:53:26;99881.28;;;11.74;81.86
75455;BME280;64035;48.358;2.122;2023-03-23T03:54:30;99871.81;;;11.73;81.76
75455;BME280;64035;48.358;2.122;2023-03-23T03:55:33;99876.94;;;11.73;81.66
75455;BME280;64035;48.358;2.122;2023-03-23T03:56:42;99874.44;;;11.74;81.44
75455;BME280;64035;48.358;2.122;2023-03-23T03:58:05;99881.13;;;11.71;82.02
75455;BME280;64035;48.358;2.122;2023-03-23T03:59:32;99887.19;;;11.73;82.24
75455;BME280;64035;48.358;2.122;2023-03-23T04:00:53;99889.81;;;11.74;81.87
75455;BME280;64035;48.358;2.122;2023-03-23T04:02:02;99888.88;;;11.72;81.81
75455;BME280;64035;48.358;2.122;2023-03-23T04:03:06;99881.28;;;11.74;81.96
75455;BME280;64035;48.358;2.122;2023-03-23T04:04:21;99894.13;;;11.76;81.57
75455;BME280;64035;48.358;2.122;2023-03-23T04:05:25;99886.41;;;11.74;81.84
75455;BME280;64035;48.358;2.122;2023-03-23T04:06:31;99887.31;;;11.76;81.75
75455;BME280;64035;48.358;2.122;2023-03-23T04:07:36;99890.69;;;11.75;81.91
75455;BME280;64035;48.358;2.122;2023-03-23T04:08:45;99892.44;;;11.76;81.71
75455;BME280;64035;48.358;2.122;2023-03-23T04:09:48;99890.69;;;11.75;81.84
75455;BME280;64035;48.358;2.122;2023-03-23T04:10:55;99897.56;;;11.76;81.94
75455;BME280;64035;48.358;2.122;2023-03-23T04:11:59;99898.44;;;11.77;81.55
75455;BME280;64035;48.358;2.122;2023-03-23T04:13:22;99909.56;;;11.77;81.82
75455;BME280;64035;48.358;2.122;2023-03-23T04:15:04;99900.13;;;11.76;81.60
75455;BME280;64035;48.358;2.122;2023-03-23T04:16:11;99914.69;;;11.77;82.01
75455;BME280;64035;48.358;2.122;2023-03-23T04:17:15;99895.88;;;11.77;81.99
75455;BME280;64035;48.358;2.122;2023-03-23T04:18:20;99898.38;;;11.75;82.08
75455;BME280;64035;48.358;2.122;2023-03-23T04:19:25;99900.06;;;11.74;81.94
75455;BME280;64035;48.358;2.122;2023-03-23T04:20:28;99912.91;;;11.74;81.89
75455;BME280;64035;48.358;2.122;2023-03-23T04:21:32;99910.38;;;11.76;81.94
75455;BME280;64035;48.358;2.122;2023-03-23T04:22:35;99911.19;;;11.75;81.85
75455;BME280;64035;48.358;2.122;2023-03-23T04:23:39;99907.75;;;11.74;82.03
75455;BME280;64035;48.358;2.122;2023-03-23T04:24:44;99912.06;;;11.76;81.91
75455;BME280;64035;48.358;2.122;2023-03-23T04:25:53;99915.47;;;11.74;82.12
75455;BME280;64035;48.358;2.122;2023-03-23T04:27:02;99917.19;;;11.74;82.13
75455;BME280;64035;48.358;2.122;2023-03-23T04:28:07;99926.59;;;11.75;82.19
75455;BME280;64035;48.358;2.122;2023-03-23T04:29:18;99917.19;;;11.74;82.20
75455;BME280;64035;48.358;2.122;2023-03-23T04:30:40;99917.97;;;11.73;82.21
75455;BME280;64035;48.358;2.122;2023-03-23T04:31:46;99922.34;;;11.76;82.24
75455;BME280;64035;48.358;2.122;2023-03-23T04:33:03;99923.22;;;11.76;81.96
75455;BME280;64035;48.358;2.122;2023-03-23T04:34:07;99924.88;;;11.74;82.08
75455;BME280;64035;48.358;2.122;2023-03-23T04:35:18;99926.59;;;11.75;81.98
75455;BME280;64035;48.358;2.122;2023-03-23T04:36:27;99930.09;;;11.77;81.91
75455;BME280;64035;48.358;2.122;2023-03-23T04:37:40;99931.78;;;11.77;82.12
75455;BME280;64035;48.358;2.122;2023-03-23T04:38:44;99932.66;;;11.77;82.17
75455;BME280;64035;48.358;2.122;2023-03-23T04:39:55;99930.09;;;11.77;82.07
75455;BME280;64035;48.358;2.122;2023-03-23T04:41:03;99936.91;;;11.77;82.16
75455;BME280;64035;48.358;2.122;2023-03-23T04:42:30;99936.09;;;11.78;82.24
75455;BME280;64035;48.358;2.122;2023-03-23T04:43:36;99930.97;;;11.78;82.17
75455;BME280;64035;48.358;2.122;2023-03-23T04:45:22;99930.09;;;11.77;82.58
75455;BME280;64035;48.358;2.122;2023-03-23T04:46:28;99932.66;;;11.77;82.21
75455;BME280;64035;48.358;2.122;2023-03-23T04:47:37;99936.03;;;11.76;82.12
75455;BME280;64035;48.358;2.122;2023-03-23T04:48:50;99933.47;;;11.76;82.47
75455;BME280;64035;48.358;2.122;2023-03-23T04:50:00;99940.28;;;11.76;82.18
75455;BME280;64035;48.358;2.122;2023-03-23T04:51:11;99949.66;;;11.75;82.33
75455;BME280;64035;48.358;2.122;2023-03-23T04:52:19;99949.66;;;11.75;82.34
75455;BME280;64035;48.358;2.122;2023-03-23T04:53:27;99946.97;;;11.72;82.25
75455;BME280;64035;48.358;2.122;2023-03-23T04:54:31;99941.09;;;11.74;82.51
75455;BME280;64035;48.358;2.122;2023-03-23T04:55:37;99938.53;;;11.74;82.67
75455;BME280;64035;48.358;2.122;2023-03-23T04:56:41;99948.84;;;11.76;82.43
75455;BME280;64035;48.358;2.122;2023-03-23T04:57:49;99955.63;;;11.74;82.65
75455;BME280;64035;48.358;2.122;2023-03-23T04:59:12;99964.28;;;11.78;82.54
75455;BME280;64035;48.358;2.122;2023-03-23T05:00:29;99964.22;;;11.76;82.72
75455;BME280;64035;48.358;2.122;2023-03-23T05:01:33;99965.16;;;11.78;82.64
75455;BME280;64035;48.358;2.122;2023-03-23T05:02:50;99969.47;;;11.79;82.54
75455;BME280;64035;48.358;2.122;2023-03-23T05:03:54;99970.34;;;11.80;82.53
75455;BME280;64035;48.358;2.122;2023-03-23T05:04:58;99965.22;;;11.80;82.43
75455;BME280;64035;48.358;2.122;2023-03-23T05:06:03;99966.97;;;11.81;82.32
75455;BME280;64035;48.358;2.122;2023-03-23T05:07:07;99965.31;;;11.83;82.42
75455;BME280;64035;48.358;2.122;2023-03-23T05:08:15;99966.09;;;11.80;82.46
75455;BME280;64035;48.358;2.122;2023-03-23T05:09:19;99962.75;;;11.83;82.53
75455;BME280;64035;48.358;2.122;2023-03-23T05:10:23;99957.63;;;11.83;82.50
75455;BME280;64035;48.358;2.122;2023-03-23T05:11:28;99963.63;;;11.83;82.45
75455;BME280;64035;48.358;2.122;2023-03-23T05:12:32;99978.97;;;11.82;82.66
75455;BME280;64035;48.358;2.122;2023-03-23T05:13:39;99963.63;;;11.83;82.74
75455;BME280;64035;48.358;2.122;2023-03-23T05:14:44;99975.59;;;11.83;82.56
75455;BME280;64035;48.358;2.122;2023-03-23T05:15:51;99962.75;;;11.83;82.56
75455;BME280;64035;48.358;2.122;2023-03-23T05:16:54;99962.81;;;11.84;82.85
75455;BME280;64035;48.358;2.122;2023-03-23T05:17:57;99970.50;;;11.84;82.91
75455;BME280;64035;48.358;2.122;2023-03-23T05:19:02;99970.50;;;11.84;82.80
75455;BME280;64035;48.358;2.122;2023-03-23T05:20:07;99968.81;;;11.85;82.97
75455;BME280;64035;48.358;2.122;2023-03-23T05:21:19;99965.44;;;11.86;82.89
75455;BME280;64035;48.358;2.122;2023-03-23T05:22:28;99957.75;;;11.86;82.83
75455;BME280;64035;48.358;2.122;2023-03-23T05:23:35;99961.13;;;11.85;82.74
75455;BME280;64035;48.358;2.122;2023-03-23T05:24:48;99966.31;;;11.86;82.58
75455;BME280;64035;48.358;2.122;2023-03-23T05:25:55;99964.56;;;11.85;82.54
75455;BME280;64035;48.358;2.122;2023-03-23T05:27:00;99962.06;;;11.87;82.37
75455;BME280;64035;48.358;2.122;2023-03-23T05:28:10;99960.41;;;11.89;82.52
75455;BME280;64035;48.358;2.122;2023-03-23T05:29:17;99963.81;;;11.88;82.66
75455;BME280;64035;48.358;2.122;2023-03-23T05:30:33;99968.88;;;11.86;82.93
75455;BME280;64035;48.358;2.122;2023-03-23T05:31:37;99962.00;;;11.85;82.91
75455;BME280;64035;48.358;2.122;2023-03-23T05:32:40;99960.25;;;11.84;82.82
75455;BME280;64035;48.358;2.122;2023-03-23T05:34:00;99966.25;;;11.85;82.83
75455;BME280;64035;48.358;2.122;2023-03-23T05:35:08;99959.38;;;11.84;82.94
75455;BME280;64035;48.358;2.122;2023-03-23T05:36:11;99962.75;;;11.83;82.83
75455;BME280;64035;48.358;2.122;2023-03-23T05:37:35;99956.72;;;11.81;82.97
75455;BME280;64035;48.358;2.122;2023-03-23T05:38:44;99958.41;;;11.80;82.85
75455;BME280;64035;48.358;2.122;2023-03-23T05:39:52;99966.19;;;11.83;82.90
75455;BME280;64035;48.358;2.122;2023-03-23T05:40:59;99965.31;;;11.83;82.92
75455;BME280;64035;48.358;2.122;2023-03-23T05:42:07;99970.44;;;11.83;82.86
75455;BME280;64035;48.358;2.122;2023-03-23T05:43:22;99970.44;;;11.83;82.88
75455;BME280;64035;48.358;2.122;2023-03-23T05:44:35;99973.00;;;11.81;82.76
75455;BME280;64035;48.358;2.122;2023-03-23T05:45:38;99966.91;;;11.79;82.92
75455;BME280;64035;48.358;2.122;2023-03-23T05:46:41;99974.69;;;11.81;83.05
75455;BME280;64035;48.358;2.122;2023-03-23T05:47:47;99976.41;;;11.82;82.93
75455;BME280;64035;48.358;2.122;2023-03-23T05:48:55;99962.66;;;11.80;82.90
75455;BME280;64035;48.358;2.122;2023-03-23T05:50:05;99963.47;;;11.79;82.89
75455;BME280;64035;48.358;2.122;2023-03-23T05:51:09;99954.91;;;11.78;82.80
75455;BME280;64035;48.358;2.122;2023-03-23T05:52:16;99970.31;;;11.78;82.61
75455;BME280;64035;48.358;2.122;2023-03-23T05:53:20;99971.13;;;11.77;82.54
75455;BME280;64035;48.358;2.122;2023-03-23T05:54:24;99972.88;;;11.78;82.80
75455;BME280;64035;48.358;2.122;2023-03-23T05:55:29;99967.69;;;11.77;82.95
75455;BME280;64035;48.358;2.122;2023-03-23T05:56:42;99969.38;;;11.76;82.87
75455;BME280;64035;48.358;2.122;2023-03-23T05:58:15;99965.91;;;11.74;82.82
75455;BME280;64035;48.358;2.122;2023-03-23T05:59:20;99969.38;;;11.76;82.78
75455;BME280;64035;48.358;2.122;2023-03-23T06:00:27;99966.75;;;11.74;82.97
75455;BME280;64035;48.358;2.122;2023-03-23T06:01:41;99970.19;;;11.75;82.77
75455;BME280;64035;48.358;2.122;2023-03-23T06:02:45;99967.63;;;11.75;82.83
75455;BME280;64035;48.358;2.122;2023-03-23T06:03:53;99979.63;;;11.76;82.95
75455;BME280;64035;48.358;2.122;2023-03-23T06:05:00;99977.00;;;11.74;82.81
75455;BME280;64035;48.358;2.122;2023-03-23T06:06:10;99979.50;;;11.73;82.85
75455;BME280;64035;48.358;2.122;2023-03-23T06:07:28;99968.47;;;11.74;82.80
75455;BME280;64035;48.358;2.122;2023-03-23T06:08:37;99970.13;;;11.73;82.65
75455;BME280;64035;48.358;2.122;2023-03-23T06:09:41;99972.69;;;11.73;82.85
75455;BME280;64035;48.358;2.122;2023-03-23T06:11:10;99972.75;;;11.75;82.86
75455;BME280;64035;48.358;2.122;2023-03-23T06:12:20;99974.38;;;11.73;82.80
75455;BME280;64035;48.358;2.122;2023-03-23T06:13:44;99980.44;;;11.75;82.60
75455;BME280;64035;48.358;2.122;2023-03-23T06:14:47;99983.00;;;11.75;82.81
75455;BME280;64035;48.358;2.122;2023-03-23T06:15:56;99980.38;;;11.73;83.05
75455;BME280;64035;48.358;2.122;2023-03-23T06:17:19;99986.44;;;11.76;82.69
75455;BME280;64035;48.358;2.122;2023-03-23T06:18:25;99989.81;;;11.74;82.60
75455;BME280;64035;48.358;2.122;2023-03-23T06:19:45;99987.19;;;11.73;82.81
75455;BME280;64035;48.358;2.122;2023-03-23T06:20:52;99986.25;;;11.71;82.70
75455;BME280;64035;48.358;2.122;2023-03-23T06:22:05;99988.81;;;11.71;83.04
75455;BME280;64035;48.358;2.122;2023-03-23T06:23:39;99987.13;;;11.71;82.90
75455;BME280;64035;48.358;2.122;2023-03-23T06:24:43;99978.56;;;11.71;83.01
75455;BME280;64035;48.358;2.122;2023-03-23T06:25:47;99968.31;;;11.71;83.04
75455;BME280;64035;48.358;2.122;2023-03-23T06:26:51;99991.38;;;11.71;82.98